Time;durP1;ratioP1;P1;durP2;ratioP2;P2;SDS_P1;SDS_P2;PMS_P1;PMS_P2;Temp;Humidity;BMP_temperature;BMP_pressure;BME280_temperature;BME280_humidity;BME280_pressure;Samples;Min_cycle;Max_cycle;Signal;HPM_P1;HPM_P2
2023/12/01 00:00:39;;;;;;;123.83;66.60;;;;;;;1.77;nan;98936.75;5056223;27;97568;-79
2023/12/01 00:03:05;;;;;;;121.37;66.40;;;;;;;1.89;nan;98933.06;5055788;27;101255;-77
2023/12/01 00:05:31;;;;;;;125.47;64.83;;;;;;;1.98;nan;98944.09;5055898;27;96652;-79
2023/12/01 00:07:56;;;;;;;125.33;66.93;;;;;;;1.96;nan;98926.91;5022115;27;96861;-76
2023/12/01 00:10:22;;;;;;;125.30;67.63;;;;;;;2.02;nan;98932.78;5055323;27;101002;-76
2023/12/01 00:12:48;;;;;;;117.70;64.93;;;;;;;1.80;nan;98908.25;5037951;27;101315;-76
2023/12/01 00:15:13;;;;;;;115.83;62.77;;;;;;;2.05;nan;98939.63;5038628;27;96539;-82
2023/12/01 00:17:39;;;;;;;117.27;64.90;;;;;;;2.09;nan;98943.84;5039097;27;96760;-78
2023/12/01 00:20:05;;;;;;;116.37;65.30;;;;;;;2.01;nan;98930.25;5055849;27;98133;-77
2023/12/01 00:22:31;;;;;;;116.07;63.20;;;;;;;2.07;nan;98943.06;5038689;27;101366;-79
2023/12/01 00:24:56;;;;;;;112.83;62.13;;;;;;;2.07;nan;98940.47;5038625;27;96682;-76
2023/12/01 00:27:22;;;;;;;122.70;65.67;;;;;;;2.11;nan;98944.69;5039074;27;96867;-77
2023/12/01 00:29:47;;;;;;;116.57;62.87;;;;;;;2.09;nan;98936.09;5038853;27;98353;-76
2023/12/01 00:32:13;;;;;;;117.17;62.33;;;;;;;2.11;nan;98920.53;5038273;27;101520;-77
2023/12/01 00:34:38;;;;;;;118.37;62.57;;;;;;;2.18;nan;98935.03;5038255;27;96523;-83
2023/12/01 00:37:04;;;;;;;112.37;61.13;;;;;;;2.24;nan;98933.19;5038525;27;97269;-77
2023/12/01 00:39:30;;;;;;;121.20;64.47;;;;;;;2.18;nan;98919.50;5055146;27;101193;-76
2023/12/01 00:41:55;;;;;;;113.73;62.03;;;;;;;2.19;nan;98932.44;5038173;27;101703;-79
2023/12/01 00:44:21;;;;;;;120.03;66.23;;;;;;;2.15;nan;98920.44;5021596;27;96902;-77
2023/12/01 00:46:46;;;;;;;107.20;59.60;;;;;;;2.20;nan;98917.75;5055613;27;96849;-78
2023/12/01 00:49:12;;;;;;;114.47;62.13;;;;;;;2.13;nan;98913.59;5021476;27;101778;-76
2023/12/01 00:51:41;;;;;;;115.10;64.67;;;;;;;2.15;nan;98911.81;5072948;27;98415;-77
2023/12/01 00:54:07;;;;;;;116.10;63.57;;;;;;;2.26;nan;98926.22;5054952;27;96808;-76
2023/12/01 00:56:33;;;;;;;124.03;65.47;;;;;;;2.21;nan;98927.19;5055371;27;96723;-77
2023/12/01 00:58:58;;;;;;;121.40;67.43;;;;;;;2.19;nan;98935.03;5037345;27;101718;-76
2023/12/01 01:01:24;;;;;;;125.00;68.43;;;;;;;2.21;nan;98934.97;5038350;27;98447;-76
2023/12/01 01:03:49;;;;;;;124.37;71.10;;;;;;;2.11;nan;98917.94;5021231;27;96780;-78
2023/12/01 01:06:15;;;;;;;130.80;70.43;;;;;;;2.14;nan;98921.31;5037775;27;96878;-76
2023/12/01 01:08:41;;;;;;;127.73;66.40;;;;;;;2.21;nan;98928.06;5037635;27;101424;-77
2023/12/01 01:11:06;;;;;;;118.60;66.87;;;;;;;2.19;nan;98923.81;5054629;27;101754;-77
2023/12/01 01:13:32;;;;;;;120.00;64.43;;;;;;;2.14;nan;98928.22;5072869;27;96662;-79
2023/12/01 01:15:58;;;;;;;129.27;67.87;;;;;;;2.13;nan;98918.78;5021580;27;96764;-77
2023/12/01 01:18:23;;;;;;;124.80;68.30;;;;;;;2.21;nan;98924.59;5054973;27;98010;-76
2023/12/01 01:20:49;;;;;;;122.80;68.87;;;;;;;2.18;nan;98922.09;5037638;27;101342;-77
2023/12/01 01:23:15;;;;;;;120.73;65.37;;;;;;;2.16;nan;98916.97;5054420;27;96634;-77
2023/12/01 01:25:41;;;;;;;122.97;64.53;;;;;;;2.09;nan;98902.44;5037708;27;97748;-77
2023/12/01 01:28:07;;;;;;;131.40;70.27;;;;;;;2.04;nan;98896.53;5020660;27;100645;-77
2023/12/01 01:30:33;;;;;;;129.27;70.07;;;;;;;2.01;nan;98914.72;5037528;27;101584;-77
2023/12/01 01:32:58;;;;;;;145.47;76.37;;;;;;;1.72;nan;98905.84;5020702;27;97664;-76
2023/12/01 01:35:25;;;;;;;146.63;76.27;;;;;;;1.73;nan;98919.63;5021152;27;96966;-77
2023/12/01 01:37:50;;;;;;;147.17;72.77;;;;;;;1.70;nan;98917.94;5072897;27;98084;-77
2023/12/01 01:40:16;;;;;;;141.70;76.53;;;;;;;1.64;nan;98928.41;5054819;27;98392;-76
2023/12/01 01:42:41;;;;;;;144.73;74.80;;;;;;;1.51;nan;98919.19;5054927;27;96581;-77
2023/12/01 01:45:07;;;;;;;143.40;76.33;;;;;;;1.58;nan;98941.47;5034229;27;96840;-77
2023/12/01 01:47:33;;;;;;;143.57;76.23;;;;;;;1.46;nan;98939.97;5015382;27;101383;-77
2023/12/01 01:49:59;;;;;;;138.47;72.73;;;;;;;1.39;nan;98927.19;5036617;27;97978;-77
2023/12/01 01:52:25;;;;;;;135.23;73.17;;;;;;;1.41;nan;98930.59;5037608;27;96654;-77
2023/12/01 01:54:50;;;;;;;151.53;74.97;;;;;;;1.56;nan;98956.16;5054479;27;96549;-77
2023/12/01 01:57:16;;;;;;;140.73;72.07;;;;;;;1.42;nan;98935.72;5054393;27;98098;-78
2023/12/01 01:59:43;;;;;;;135.00;70.07;;;;;;;1.50;nan;98951.09;5037068;27;102049;-77
2023/12/01 02:02:08;;;;;;;141.47;72.93;;;;;;;1.38;nan;98934.09;5020293;27;96546;-78
2023/12/01 02:04:34;;;;;;;143.23;75.77;;;;;;;1.54;nan;98953.63;5037622;27;96848;-77
2023/12/01 02:06:59;;;;;;;142.60;76.37;;;;;;;1.51;nan;98958.84;5072530;27;98189;-76
2023/12/01 02:09:27;;;;;;;143.10;74.77;;;;;;;1.52;nan;98959.69;5020240;27;101020;-76
2023/12/01 02:11:53;;;;;;;134.30;71.10;;;;;;;1.38;nan;98949.59;5053115;27;96657;-77
2023/12/01 02:14:19;;;;;;;136.13;71.77;;;;;;;1.36;nan;98948.78;5037152;27;97079;-76
2023/12/01 02:16:47;;;;;;;132.60;67.53;;;;;;;1.26;nan;98957.59;5036962;27;98512;-76
2023/12/01 02:19:13;;;;;;;139.87;71.97;;;;;;;1.06;nan;98961.38;5037316;27;97919;-76
2023/12/01 02:21:43;;;;;;;130.23;66.37;;;;;;;1.01;nan;98958.00;5036916;27;96783;-76
2023/12/01 02:24:09;;;;;;;130.03;67.10;;;;;;;0.89;nan;98961.66;5054000;27;96625;-76
2023/12/01 02:26:34;;;;;;;122.73;65.13;;;;;;;1.03;nan;98968.34;5036678;27;101597;-76
2023/12/01 02:29:05;;;;;;;108.13;58.13;;;;;;;1.05;nan;98959.69;5072408;27;97856;-81
2023/12/01 02:31:31;;;;;;;108.03;56.60;;;;;;;1.12;nan;98957.84;5054134;27;97041;-77
2023/12/01 02:33:57;;;;;;;105.53;55.30;;;;;;;1.17;nan;98944.84;5019886;27;96942;-76
2023/12/01 02:36:23;;;;;;;107.23;56.77;;;;;;;1.21;nan;98955.06;5019424;27;101091;-76
2023/12/01 02:38:48;;;;;;;117.83;62.77;;;;;;;1.22;nan;98945.59;5036928;27;98431;-77
2023/12/01 02:41:15;;;;;;;124.07;64.67;;;;;;;1.21;nan;98943.88;5053997;27;96725;-78
2023/12/01 02:43:41;;;;;;;117.10;61.93;;;;;;;1.18;nan;98947.38;5037034;27;96712;-76
2023/12/01 02:46:07;;;;;;;119.43;62.17;;;;;;;1.32;nan;98947.97;5036874;27;98365;-77
2023/12/01 02:48:32;;;;;;;122.50;66.27;;;;;;;1.36;nan;98941.88;5036769;27;98459;-78
2023/12/01 02:50:58;;;;;;;128.47;64.30;;;;;;;1.35;nan;98937.59;5053554;27;96558;-76
2023/12/01 02:53:24;;;;;;;125.47;66.83;;;;;;;1.39;nan;98947.88;5020321;27;96648;-76
2023/12/01 02:55:49;;;;;;;133.07;68.23;;;;;;;1.43;nan;98967.63;5036321;27;101647;-76
2023/12/01 02:58:15;;;;;;;128.13;68.47;;;;;;;1.36;nan;98974.63;5036296;27;101415;-80
2023/12/01 03:00:44;;;;;;;129.33;68.63;;;;;;;1.34;nan;98972.09;5071398;27;96495;-77
2023/12/01 03:03:10;;;;;;;133.47;69.20;;;;;;;1.37;nan;98968.59;5053826;27;96788;-76
2023/12/01 03:05:36;;;;;;;138.63;71.40;;;;;;;1.43;nan;98960.72;5036196;27;100897;-77
2023/12/01 03:08:01;;;;;;;131.17;69.00;;;;;;;1.43;nan;98963.31;5036130;27;101472;-80
2023/12/01 03:10:26;;;;;;;132.63;68.07;;;;;;;1.48;nan;98958.88;5036232;27;96610;-76
2023/12/01 03:12:52;;;;;;;126.77;68.43;;;;;;;1.50;nan;98951.09;5035953;27;96872;-76
2023/12/01 03:15:18;;;;;;;124.97;67.00;;;;;;;1.52;nan;98947.63;5038577;27;97571;-80
2023/12/01 03:17:43;;;;;;;126.70;65.30;;;;;;;1.56;nan;98953.56;5075338;27;97886;-76
2023/12/01 03:20:10;;;;;;;135.73;68.80;;;;;;;1.48;nan;98943.38;5022788;27;96724;-78
2023/12/01 03:22:40;;;;;;;130.30;67.83;;;;;;;1.45;nan;98942.56;5056776;27;96630;-77
2023/12/01 03:25:11;;;;;;;130.47;66.97;;;;;;;1.47;nan;98944.25;5038980;27;101246;-76
2023/12/01 03:27:39;;;;;;;130.40;66.22;;;;;;;1.57;nan;98934.56;5057575;27;98144;-80
2023/12/01 03:30:13;;;;;;;122.80;64.13;;;;;;;1.60;nan;98916.44;5039527;27;96755;-76
2023/12/01 03:32:46;;;;;;;130.87;68.83;;;;;;;1.61;nan;98904.34;5023751;27;96787;-76
2023/12/01 03:35:13;;;;;;;140.37;70.57;;;;;;;1.56;nan;98932.88;5039668;27;97953;-76
2023/12/01 03:37:39;;;;;;;135.23;68.57;;;;;;;1.58;nan;98946.66;5039142;27;101051;-77
2023/12/01 03:40:12;;;;;;;126.63;68.07;;;;;;;1.53;nan;98932.94;5038972;27;96551;-77
2023/12/01 03:42:43;;;;;;;127.97;69.03;;;;;;;1.64;nan;98941.34;5040335;27;96839;-78
2023/12/01 03:45:13;;;;;;;133.93;70.10;;;;;;;1.62;nan;98952.59;5022399;27;101165;-78
2023/12/01 03:47:39;;;;;;;132.07;69.80;;;;;;;1.53;nan;98969.16;5022617;27;101484;-77
2023/12/01 03:50:05;;;;;;;128.70;69.07;;;;;;;1.53;nan;98961.41;5056019;27;96543;-80
2023/12/01 03:52:31;;;;;;;134.50;71.30;;;;;;;1.57;nan;98978.53;5055912;27;96861;-79
2023/12/01 03:54:58;;;;;;;134.53;70.80;;;;;;;1.55;nan;98959.63;5039219;27;98008;-77
2023/12/01 03:57:27;;;;;;;128.27;66.53;;;;;;;1.69;nan;98970.56;5022271;27;100905;-76
2023/12/01 03:59:56;;;;;;;131.23;69.03;;;;;;;1.65;nan;98978.41;5022593;27;96706;-77
2023/12/01 04:02:21;;;;;;;129.90;68.90;;;;;;;1.73;nan;98979.13;5056264;27;96829;-79
2023/12/01 04:04:50;;;;;;;125.20;69.67;;;;;;;1.68;nan;98955.06;5021957;27;101219;-76
2023/12/01 04:07:16;;;;;;;131.57;71.30;;;;;;;1.61;nan;98969.03;5039271;27;97878;-77
2023/12/01 04:09:42;;;;;;;133.67;70.43;;;;;;;1.58;nan;98964.75;5035148;27;96972;-79
2023/12/01 04:12:07;;;;;;;123.60;69.63;;;;;;;1.43;nan;98959.88;5029797;27;96966;-77
2023/12/01 04:14:33;;;;;;;132.90;70.07;;;;;;;1.46;nan;98957.22;5038236;27;98393;-76
2023/12/01 04:17:08;;;;;;;134.57;68.50;;;;;;;1.59;nan;98975.06;5055503;27;101290;-78
2023/12/01 04:19:38;;;;;;;128.23;67.57;;;;;;;1.45;nan;98942.56;5039847;27;96885;-81
2023/12/01 04:22:07;;;;;;;134.60;68.27;;;;;;;1.44;nan;98959.84;5038290;27;96867;-78
2023/12/01 04:24:33;;;;;;;124.17;66.47;;;;;;;1.41;nan;98946.13;5038122;27;101211;-83
2023/12/01 04:27:02;;;;;;;133.40;70.47;;;;;;;1.33;nan;98959.16;5037370;27;98314;-77
2023/12/01 04:29:31;;;;;;;137.33;72.27;;;;;;;1.24;nan;98978.28;5038431;27;96637;-78
2023/12/01 04:32:00;;;;;;;145.07;73.37;;;;;;;1.33;nan;98974.69;5039072;27;96700;-81
2023/12/01 04:34:26;;;;;;;147.47;75.27;;;;;;;1.31;nan;98966.13;5021214;27;101186;-84
2023/12/01 04:36:53;;;;;;;140.23;71.80;;;;;;;1.11;nan;98950.97;5021746;27;101011;-77
2023/12/01 04:39:18;;;;;;;136.47;69.20;;;;;;;1.10;nan;98955.25;5037687;27;97650;-79
2023/12/01 04:41:44;;;;;;;125.67;66.40;;;;;;;1.13;nan;98963.00;5055720;27;96851;-77
2023/12/01 04:44:09;;;;;;;137.60;70.63;;;;;;;1.12;nan;98963.00;5038133;27;100625;-78
2023/12/01 04:46:35;;;;;;;141.30;73.17;;;;;;;1.17;nan;98963.78;5038088;27;101151;-78
2023/12/01 04:49:00;;;;;;;133.60;68.80;;;;;;;0.95;nan;98976.19;5055060;27;96569;-83
2023/12/01 04:51:26;;;;;;;120.80;63.73;;;;;;;1.04;nan;98986.38;5038162;27;96891;-83
2023/12/01 04:53:51;;;;;;;130.63;66.17;;;;;;;1.12;nan;98984.53;5037903;27;101252;-81
2023/12/01 04:56:17;;;;;;;137.67;71.37;;;;;;;0.96;nan;98967.59;5033287;27;101474;-81
2023/12/01 04:58:42;;;;;;;129.63;66.00;;;;;;;1.03;nan;98969.19;5034923;27;96556;-77
2023/12/01 05:01:08;;;;;;;129.27;68.13;;;;;;;1.14;nan;98979.34;5055310;27;96855;-79
2023/12/01 05:03:34;;;;;;;130.00;66.67;;;;;;;1.02;nan;98985.56;5054357;27;101117;-79
2023/12/01 05:06:00;;;;;;;126.13;66.00;;;;;;;1.13;nan;98982.78;5037857;27;100573;-81
2023/12/01 05:08:27;;;;;;;123.50;64.50;;;;;;;1.23;nan;99001.59;5055212;27;96565;-81
2023/12/01 05:10:54;;;;;;;120.50;63.73;;;;;;;1.17;nan;98986.19;5055319;27;96613;-78
2023/12/01 05:13:20;;;;;;;127.00;65.80;;;;;;;1.24;nan;98978.28;5054029;27;100939;-78
2023/12/01 05:15:46;;;;;;;128.43;67.70;;;;;;;1.31;nan;98991.97;5054485;27;101779;-78
2023/12/01 05:18:11;;;;;;;126.77;66.33;;;;;;;1.29;nan;99004.91;5037645;27;96675;-78
2023/12/01 05:20:37;;;;;;;116.80;64.63;;;;;;;1.38;nan;99001.31;5055513;27;96830;-78
2023/12/01 05:23:10;;;;;;;124.30;65.47;;;;;;;1.40;nan;99006.44;5037534;27;101102;-78
2023/12/01 05:25:44;;;;;;;125.13;65.63;;;;;;;1.40;nan;99007.34;5021381;27;100798;-83
2023/12/01 05:28:10;;;;;;;130.50;65.57;;;;;;;1.33;nan;98980.72;5037742;27;96574;-76
2023/12/01 05:30:40;;;;;;;130.03;67.57;;;;;;;1.50;nan;98995.91;5055201;27;96742;-76
2023/12/01 05:33:06;;;;;;;127.13;67.47;;;;;;;1.54;nan;99002.75;5036979;27;97903;-77
2023/12/01 05:35:33;;;;;;;133.50;69.13;;;;;;;1.40;nan;98978.88;5054182;27;97953;-80
2023/12/01 05:37:59;;;;;;;137.20;69.20;;;;;;;1.47;nan;98990.81;5053832;27;96680;-77
2023/12/01 05:40:35;;;;;;;123.80;64.47;;;;;;;1.55;nan;98998.44;5037093;27;96941;-76
2023/12/01 05:43:01;;;;;;;125.10;63.60;;;;;;;1.47;nan;98992.53;5037591;27;101230;-76
2023/12/01 05:45:28;;;;;;;118.80;64.83;;;;;;;1.42;nan;98976.25;5037366;27;101443;-77
2023/12/01 05:47:55;;;;;;;122.87;63.50;;;;;;;1.48;nan;98986.47;5037245;27;96577;-76
2023/12/01 05:50:23;;;;;;;119.43;63.90;;;;;;;1.51;nan;98991.59;5037395;27;96792;-76
2023/12/01 05:52:51;;;;;;;125.70;64.83;;;;;;;1.54;nan;98979.47;5036289;27;101279;-76
2023/12/01 05:55:24;;;;;;;132.67;69.00;;;;;;;1.48;nan;98974.41;5037008;27;98448;-76
2023/12/01 05:57:55;;;;;;;136.00;67.33;;;;;;;1.52;nan;98983.81;5037225;27;96540;-76
2023/12/01 06:00:22;;;;;;;128.50;68.13;;;;;;;1.48;nan;98976.97;5020089;27;96903;-77
2023/12/01 06:02:50;;;;;;;124.97;66.23;;;;;;;1.54;nan;98992.41;5020036;27;100775;-78
2023/12/01 06:05:17;;;;;;;131.20;66.90;;;;;;;1.55;nan;98988.09;5019823;27;101250;-76
2023/12/01 06:07:49;;;;;;;125.80;66.70;;;;;;;1.44;nan;98977.09;5037204;27;96536;-75
2023/12/01 06:10:18;;;;;;;126.27;66.30;;;;;;;1.56;nan;98995.81;5037728;27;96801;-74
2023/12/01 06:12:45;;;;;;;128.90;66.10;;;;;;;1.56;nan;98982.88;5053527;27;97623;-79
2023/12/01 06:15:15;;;;;;;129.47;67.40;;;;;;;1.55;nan;98980.34;5037154;27;97835;-76
2023/12/01 06:17:42;;;;;;;134.40;68.87;;;;;;;1.59;nan;98988.00;5054350;27;96635;-76
2023/12/01 06:20:16;;;;;;;128.03;67.57;;;;;;;1.52;nan;98986.41;5037027;27;96813;-76
2023/12/01 06:22:43;;;;;;;132.33;68.97;;;;;;;1.45;nan;98984.81;5037868;27;101289;-76
2023/12/01 06:25:09;;;;;;;125.77;67.30;;;;;;;1.54;nan;98996.72;5036780;27;101578;-75
2023/12/01 06:27:34;;;;;;;136.07;69.57;;;;;;;1.54;nan;99001.88;5036622;27;96584;-76
2023/12/01 06:30:00;;;;;;;140.10;69.57;;;;;;;1.44;nan;98988.28;5036716;27;96828;-76
2023/12/01 06:32:25;;;;;;;133.30;70.70;;;;;;;1.48;nan;98997.69;5036531;27;101518;-77
2023/12/01 06:34:51;;;;;;;124.50;68.00;;;;;;;1.50;nan;99010.59;5053561;27;101385;-76
2023/12/01 06:37:17;;;;;;;126.80;67.77;;;;;;;1.51;nan;99009.69;5037162;27;96512;-75
2023/12/01 06:39:43;;;;;;;128.60;69.20;;;;;;;1.46;nan;99009.81;5020115;27;96716;-75
2023/12/01 06:42:09;;;;;;;134.07;71.20;;;;;;;1.43;nan;99025.38;5019047;27;101707;-74
2023/12/01 06:44:35;;;;;;;128.87;66.83;;;;;;;1.49;nan;99030.44;5053225;27;97539;-75
2023/12/01 06:47:01;;;;;;;130.70;68.20;;;;;;;1.50;nan;99026.09;5036448;27;96701;-79
2023/12/01 06:49:26;;;;;;;124.13;67.30;;;;;;;1.48;nan;99014.94;5037590;27;96823;-77
2023/12/01 06:51:52;;;;;;;137.17;68.30;;;;;;;1.41;nan;99019.38;5039883;27;97676;-82
2023/12/01 06:54:17;;;;;;;133.67;70.63;;;;;;;1.46;nan;99032.22;5039566;27;101166;-78
2023/12/01 06:56:43;;;;;;;133.83;71.07;;;;;;;1.46;nan;99025.31;5039696;27;96741;-78
2023/12/01 06:59:08;;;;;;;131.33;69.07;;;;;;;1.40;nan;99016.78;5039963;27;96961;-78
2023/12/01 07:01:35;;;;;;;131.67;69.33;;;;;;;1.42;nan;99023.66;5022538;27;101030;-78
2023/12/01 07:04:07;;;;;;;132.50;70.10;;;;;;;1.45;nan;99012.41;5022766;27;100875;-78
2023/12/01 07:06:35;;;;;;;125.53;68.03;;;;;;;1.46;nan;99025.31;5023237;27;97532;-78
2023/12/01 07:09:01;;;;;;;125.83;71.20;;;;;;;1.45;nan;99023.59;5039305;27;97781;-79
2023/12/01 07:11:26;;;;;;;125.63;67.20;;;;;;;1.47;nan;99024.44;5039681;27;98059;-83
2023/12/01 07:13:52;;;;;;;124.73;66.60;;;;;;;1.56;nan;99019.09;5039258;27;101707;-80
2023/12/01 07:16:19;;;;;;;124.93;66.83;;;;;;;1.51;nan;99017.47;5039986;27;96615;-81
2023/12/01 07:18:44;;;;;;;123.83;66.70;;;;;;;1.66;nan;99027.56;5039882;27;96865;-82
2023/12/01 07:21:10;;;;;;;120.57;61.47;;;;;;;1.67;nan;99021.47;5039558;27;101731;-83
2023/12/01 07:23:36;;;;;;;119.57;63.50;;;;;;;1.74;nan;99024.81;5023028;27;101273;-83
2023/12/01 07:26:02;;;;;;;120.53;62.93;;;;;;;1.77;nan;99012.66;5056516;27;96687;-83
2023/12/01 07:28:28;;;;;;;120.93;62.10;;;;;;;1.81;nan;99019.50;5023080;27;96810;-83
2023/12/01 07:30:54;;;;;;;117.03;64.27;;;;;;;1.79;nan;99013.47;5038764;27;101377;-83
2023/12/01 07:33:19;;;;;;;108.90;60.13;;;;;;;1.89;nan;99026.25;5022608;27;100773;-81
2023/12/01 07:35:45;;;;;;;116.37;62.57;;;;;;;1.95;nan;99034.75;5039524;27;96620;-83
2023/12/01 07:38:10;;;;;;;109.87;59.03;;;;;;;2.02;nan;99038.91;5056212;27;96589;-85
2023/12/01 07:40:36;;;;;;;108.03;59.93;;;;;;;2.12;nan;99041.31;5056367;27;97733;-83
2023/12/01 07:43:02;;;;;;;116.90;61.93;;;;;;;2.10;nan;99030.16;5056139;27;97463;-79
2023/12/01 07:45:28;;;;;;;118.37;60.67;;;;;;;2.25;nan;99037.63;5022572;27;96652;-91
2023/12/01 07:47:57;;;;;;;109.90;59.40;;;;;;;2.42;nan;99053.66;5039248;27;96653;-78
2023/12/01 07:50:22;;;;;;;108.30;59.53;;;;;;;2.53;nan;99047.38;5056319;27;98222;-78
2023/12/01 07:52:49;;;;;;;110.37;61.73;;;;;;;2.65;nan;99044.53;5056155;27;97633;-79
2023/12/01 07:55:16;;;;;;;108.27;61.23;;;;;;;2.68;nan;99049.66;5038645;27;98462;-79
2023/12/01 07:57:42;;;;;;;115.00;62.00;;;;;;;2.60;nan;99041.19;5056320;27;96720;-80
2023/12/01 08:00:16;;;;;;;120.10;66.33;;;;;;;2.59;nan;99039.47;5038430;27;101062;-79
2023/12/01 08:02:42;;;;;;;118.90;63.70;;;;;;;2.52;nan;99043.09;5022697;27;102009;-80
2023/12/01 08:05:13;;;;;;;111.27;61.50;;;;;;;2.52;nan;99043.09;5039091;27;96578;-78
2023/12/01 08:07:44;;;;;;;103.70;58.10;;;;;;;2.55;nan;99051.63;5057255;27;96617;-78
2023/12/01 08:10:14;;;;;;;106.60;61.47;;;;;;;2.66;nan;99052.25;5038743;27;97931;-78
2023/12/01 08:12:42;;;;;;;107.90;58.77;;;;;;;2.76;nan;99050.31;5038536;27;101831;-79
2023/12/01 08:15:08;;;;;;;103.03;60.73;;;;;;;2.77;nan;99052.03;5056028;27;96583;-79
2023/12/01 08:17:34;;;;;;;104.27;58.67;;;;;;;2.82;nan;99050.19;5038549;27;96567;-79
2023/12/01 08:19:59;;;;;;;115.80;62.57;;;;;;;2.98;nan;99079.19;5021349;27;100660;-78
2023/12/01 08:22:25;;;;;;;108.93;60.63;;;;;;;3.07;nan;99084.16;5038548;27;101014;-78
2023/12/01 08:24:50;;;;;;;114.93;60.47;;;;;;;3.17;nan;99080.50;5038095;27;96735;-78
2023/12/01 08:27:16;;;;;;;106.70;57.10;;;;;;;3.18;nan;99079.59;5038530;27;96866;-78
2023/12/01 08:29:42;;;;;;;105.43;57.93;;;;;;;3.15;nan;99069.28;5037925;27;101714;-78
2023/12/01 08:32:08;;;;;;;94.70;55.80;;;;;;;3.05;nan;99066.94;5021782;27;100264;-78
2023/12/01 08:34:33;;;;;;;102.40;57.50;;;;;;;3.04;nan;99065.25;5073959;27;96550;-77
2023/12/01 08:36:59;;;;;;;105.97;56.60;;;;;;;2.97;nan;99061.94;5055847;27;96842;-79
2023/12/01 08:39:24;;;;;;;95.97;52.50;;;;;;;3.07;nan;99063.44;5038407;27;97477;-76
2023/12/01 08:41:53;;;;;;;95.97;54.27;;;;;;;3.17;nan;99082.19;5038267;27;97685;-78
2023/12/01 08:44:19;;;;;;;98.97;55.80;;;;;;;3.16;nan;99096.06;5038515;27;96519;-77
2023/12/01 08:46:45;;;;;;;95.03;52.77;;;;;;;3.22;nan;99077.75;5055129;27;96841;-76
2023/12/01 08:49:10;;;;;;;105.90;60.67;;;;;;;3.42;nan;99094.59;5037871;27;101485;-76
2023/12/01 08:51:35;;;;;;;112.47;67.60;;;;;;;3.45;nan;99108.34;5055378;27;97346;-77
2023/12/01 08:54:01;;;;;;;110.40;61.07;;;;;;;3.34;nan;99103.41;5037759;27;96856;-79
2023/12/01 08:56:31;;;;;;;113.60;64.60;;;;;;;3.18;nan;99096.88;5073343;27;96651;-80
2023/12/01 08:58:57;;;;;;;116.40;63.97;;;;;;;3.29;nan;99107.03;5020958;27;101016;-79
2023/12/01 09:01:22;;;;;;;128.40;71.77;;;;;;;3.41;nan;99101.53;5037565;27;101150;-79
2023/12/01 09:03:47;;;;;;;139.57;72.53;;;;;;;3.45;nan;99110.09;5054613;27;96493;-82
2023/12/01 09:06:13;;;;;;;130.37;74.20;;;;;;;3.36;nan;99114.59;5037781;27;96916;-81
2023/12/01 09:08:38;;;;;;;134.67;73.83;;;;;;;3.39;nan;99122.31;5020405;27;101168;-77
2023/12/01 09:11:04;;;;;;;142.20;78.90;;;;;;;3.38;nan;99136.19;5054173;27;101336;-79
2023/12/01 09:13:32;;;;;;;143.90;75.80;;;;;;;3.45;nan;99133.44;5052993;27;96942;-78
2023/12/01 09:15:59;;;;;;;140.73;78.77;;;;;;;3.40;nan;99117.97;5038263;27;96781;-78
2023/12/01 09:18:24;;;;;;;150.47;79.50;;;;;;;3.46;nan;99129.94;5037315;27;101161;-77
2023/12/01 09:20:50;;;;;;;149.40;78.97;;;;;;;3.50;nan;99135.03;5072857;27;97923;-77
2023/12/01 09:23:15;;;;;;;143.17;79.30;;;;;;;3.57;nan;99120.16;5055028;27;96569;-77
2023/12/01 09:25:41;;;;;;;164.77;88.23;;;;;;;3.61;nan;99127.00;5021469;27;96794;-77
2023/12/01 09:28:06;;;;;;;173.80;89.90;;;;;;;3.39;nan;99124.06;5037638;27;101710;-76
2023/12/01 09:30:32;;;;;;;168.13;88.33;;;;;;;3.55;nan;99138.38;5037937;27;97373;-77
2023/12/01 09:32:58;;;;;;;158.97;84.93;;;;;;;3.77;nan;99127.47;5037660;27;96420;-76
2023/12/01 09:35:25;;;;;;;161.23;85.40;;;;;;;3.85;nan;99141.09;5037702;27;96708;-76
2023/12/01 09:37:51;;;;;;;160.13;82.53;;;;;;;3.94;nan;99135.66;5020802;27;101394;-79
2023/12/01 09:40:18;;;;;;;158.13;82.30;;;;;;;3.69;nan;99130.22;5054842;27;97537;-75
2023/12/01 09:42:43;;;;;;;167.33;85.60;;;;;;;3.70;nan;99134.56;5037714;27;96559;-75
2023/12/01 09:45:12;;;;;;;162.17;83.43;;;;;;;3.58;nan;99129.66;5054714;27;96831;-76
2023/12/01 09:47:42;;;;;;;168.10;83.77;;;;;;;3.74;nan;99130.97;5054040;27;101079;-76
2023/12/01 09:50:13;;;;;;;155.00;84.03;;;;;;;3.71;nan;99136.25;5037549;27;102178;-75
2023/12/01 09:52:40;;;;;;;160.93;84.03;;;;;;;3.67;nan;99128.59;5020852;27;96546;-77
2023/12/01 09:55:06;;;;;;;160.77;84.33;;;;;;;3.70;nan;99125.91;5020608;27;96819;-73
2023/12/01 09:57:32;;;;;;;161.63;83.80;;;;;;;3.57;nan;99121.00;5020083;27;101957;-85
2023/12/01 09:59:57;;;;;;;169.27;85.80;;;;;;;3.77;nan;99127.47;5036663;27;101534;-79
2023/12/01 10:02:23;;;;;;;163.93;83.10;;;;;;;3.84;nan;99114.28;5054318;27;96761;-80
2023/12/01 10:05:00;;;;;;;170.87;86.50;;;;;;;3.81;nan;99101.38;5020305;27;96963;-83
2023/12/01 10:07:25;;;;;;;161.60;83.07;;;;;;;3.95;nan;99113.16;5037181;27;101305;-75
2023/12/01 14:01:56;;;;;;;84.47;42.83;;;;;;;1.87;69.36;99168.63;5010387;28;97426;-76
2023/12/01 14:04:22;;;;;;;115.50;55.43;;;;;;;1.99;69.39;99176.16;4991904;28;96719;-78
2023/12/01 14:06:48;;;;;;;182.27;87.63;;;;;;;2.21;68.93;99176.66;4991058;28;97434;-78
2023/12/01 14:09:14;;;;;;;185.47;91.80;;;;;;;2.37;68.75;99179.81;4991265;28;100903;-77
2023/12/01 14:11:39;;;;;;;170.07;85.80;;;;;;;2.54;68.65;99173.44;4972502;28;97479;-77
2023/12/01 14:14:05;;;;;;;151.67;77.97;;;;;;;2.65;67.52;99166.31;4973086;28;97359;-74
2023/12/01 14:16:31;;;;;;;145.23;75.73;;;;;;;2.82;67.84;99166.84;4972197;28;101166;-75
2023/12/01 14:18:57;;;;;;;104.03;52.93;;;;;;;2.86;67.36;99167.63;4970641;28;101111;-79
2023/12/01 14:21:23;;;;;;;87.87;48.77;;;;;;;2.89;67.35;99165.81;4973618;28;96844;-76
2023/12/01 14:23:49;;;;;;;83.87;46.07;;;;;;;2.86;66.94;99150.31;4974464;28;97307;-75
2023/12/01 14:26:15;;;;;;;76.63;43.37;;;;;;;2.93;66.82;99164.84;4989130;28;98412;-76
2023/12/01 14:28:40;;;;;;;77.50;43.87;;;;;;;2.80;67.17;99167.75;4970655;28;101426;-77
2023/12/01 14:31:06;;;;;;;80.97;44.87;;;;;;;2.76;67.48;99158.31;4951842;28;99006;-79
2023/12/01 14:33:31;;;;;;;84.07;44.70;;;;;;;2.66;67.69;99162.84;4986436;28;98046;-77
2023/12/01 14:35:57;;;;;;;75.83;44.67;;;;;;;2.38;67.82;99165.09;4973024;28;101092;-77
2023/12/01 14:38:23;;;;;;;81.30;46.13;;;;;;;2.53;68.25;99179.50;4984278;28;101409;-76
2023/12/01 14:40:49;;;;;;;84.77;47.23;;;;;;;2.48;67.98;99158.88;4972749;28;97061;-77
2023/12/01 14:43:14;;;;;;;84.77;48.07;;;;;;;2.55;67.95;99165.63;4971363;28;96939;-73
2023/12/01 14:45:41;;;;;;;82.80;43.63;;;;;;;2.53;67.93;99167.44;4984983;28;98390;-76
2023/12/01 14:48:06;;;;;;;81.90;44.37;;;;;;;2.40;68.60;99156.44;4958863;28;100835;-75
2023/12/01 14:50:32;;;;;;;80.97;43.97;;;;;;;2.60;68.34;99160.38;4981501;28;96730;-75
2023/12/01 14:52:57;;;;;;;81.50;45.73;;;;;;;2.68;67.90;99159.34;4974079;28;97315;-76
2023/12/01 14:55:24;;;;;;;77.33;41.53;;;;;;;2.78;67.56;99185.06;4980288;28;97648;-76
2023/12/01 14:57:49;;;;;;;77.70;44.00;;;;;;;2.52;67.77;99157.06;4956662;28;101289;-76
2023/12/01 15:00:17;;;;;;;77.83;44.07;;;;;;;2.64;67.80;99170.63;4987788;28;96765;-78
2023/12/01 15:02:43;;;;;;;86.63;47.20;;;;;;;2.78;67.55;99172.94;4974602;28;96999;-76
2023/12/01 15:05:09;;;;;;;82.67;43.40;;;;;;;2.83;67.75;99194.44;5001253;28;97456;-76
2023/12/01 15:07:34;;;;;;;89.03;45.80;;;;;;;2.85;67.50;99197.00;4972567;28;100949;-76
2023/12/01 15:10:00;;;;;;;80.57;45.73;;;;;;;2.90;67.25;99195.16;4972928;28;98067;-77
2023/12/01 15:12:25;;;;;;;84.13;45.23;;;;;;;2.74;67.50;99199.81;4950397;28;96937;-77
2023/12/01 15:14:51;;;;;;;82.53;45.97;;;;;;;2.81;67.54;99216.94;4972015;28;97529;-75
2023/12/01 15:17:17;;;;;;;84.27;45.67;;;;;;;2.91;67.49;99223.66;4975330;28;97905;-79